KDLS/DLS METAR and TAF weather

Enter ICAO airport designator
Station Type Date Time Source
KDLS METAR 2022/01/26 12:53 UTC NOAA

KDLS 261253Z AUTO 08004KT 9SM OVC013 02/M02 A3036 RMK AO2 SLP284 T00221017


Station Type Date Time Source
KDLS Decoded METAR 2022/01/26 12:53 UTC NOAA

THE DALLES MUNICIPAL AIRPORT , OR, United States (KDLS) 45-37N 121-10W 71M
Jan 26, 2022 - 07:53 AM EST / 2022.01.26 1253 UTC
Wind: from the E (080 degrees) at 5 MPH (4 KT):0
Visibility: 9 mile(s):0
Sky conditions: overcast
Temperature: 36.0 F (2.2 C)
Dew Point: 28.9 F (-1.7 C)
Relative Humidity: 75%
Pressure (altimeter): 30.36 in. Hg (1028 hPa)
ob: KDLS 261253Z AUTO 08004KT 9SM OVC013 02/M02 A3036 RMK AO2 SLP284 T00221017
cycle: 13

Station Type Date Time Source
KDLS TAF 2022/01/26 12:27 UTC NOAA

TAF KDLS 261124Z 2612/2712 07007KT P6SM OVC015
FM261900 VRB03KT P6SM OVC020
FM262100 VRB04KT P6SM SCT250
FM270600 09004KT P6SM BKN015

Example: see airport list